Sign in to follow this  
signmanbob

RVR Monitor

Recommended Posts

Help AVSIM continue to serve you!
Please donate today!

Yes, if you use real world weather.  It gives a quick snapshot of the RVR at some of the major airports.  6000=at least 1 mile visibility.  Most ILS minimums are 1800.

 

Pretty handy.

Share this post


Link to post
Share on other sites

I think that's a perl script, so wondering if the reporting frequency is live or every x minute(s).  KIAH was 700, now at 800 (a minute or so later).   Looking at current metar for kiah

 

  271253Z 34003KT 0SM R27/1200FT FG BKN002 BKN011 OVC020 20/19 A3022 RMK AO2 SFC VIS 1/2 SLP232 T02000194

 

Just refreshed again and it went back to 700.  

Share this post


Link to post
Share on other sites

Create an account or sign in to comment

You need to be a member in order to leave a comment

Create an account

Sign up for a new account in our community. It's easy!

Register a new account

Sign in

Already have an account? Sign in here.

Sign In Now
Sign in to follow this